createdAt,value
2017-06-05T00:02:18.146Z,1.70
2017-06-05T00:04:44.422Z,1.37
2017-06-05T00:07:11.709Z,1.67
2017-06-05T00:09:37.966Z,1.83
2017-06-05T00:12:04.222Z,1.90
2017-06-05T00:14:30.529Z,1.50
2017-06-05T00:16:56.808Z,1.37
2017-06-05T00:19:23.826Z,1.40
2017-06-05T00:21:50.162Z,1.70
2017-06-05T00:24:16.432Z,2.03
2017-06-05T00:26:42.737Z,1.57
2017-06-05T00:29:10.806Z,1.60
2017-06-05T00:31:37.809Z,1.57
2017-06-05T00:34:04.070Z,1.60
2017-06-05T00:36:31.393Z,1.47
2017-06-05T00:38:57.657Z,1.63
2017-06-05T00:41:23.925Z,1.60
2017-06-05T00:43:50.290Z,1.77
2017-06-05T00:46:16.558Z,1.60
2017-06-05T00:48:44.578Z,1.53
2017-06-05T00:51:10.894Z,1.30
2017-06-05T00:53:37.173Z,1.30
2017-06-05T00:56:03.446Z,1.50
2017-06-05T00:58:29.758Z,1.70
2017-06-05T01:00:56.043Z,1.33
2017-06-05T01:03:22.323Z,1.60
2017-06-05T01:05:48.630Z,1.57
2017-06-05T01:08:14.894Z,1.67
2017-06-05T01:10:41.165Z,1.40
2017-06-05T01:13:07.474Z,1.50
2017-06-05T01:15:33.733Z,1.97
2017-06-05T01:18:01.010Z,1.50
2017-06-05T01:20:27.322Z,2.13
2017-06-05T01:22:53.582Z,1.77
2017-06-05T01:25:19.846Z,1.80
2017-06-05T01:27:46.184Z,2.27
2017-06-05T01:30:12.458Z,1.93
2017-06-05T01:32:38.749Z,1.37
2017-06-05T01:35:05.066Z,1.43
2017-06-05T01:37:31.369Z,1.17
2017-06-05T01:39:57.658Z,1.23
2017-06-05T01:42:24.751Z,1.17
2017-06-05T01:44:51.030Z,1.10
2017-06-05T01:47:18.066Z,1.20
2017-06-05T01:49:44.403Z,0.80
2017-06-05T01:52:10.697Z,1.30
2017-06-05T01:54:37.002Z,0.93
2017-06-05T01:57:03.322Z,1.13
2017-06-05T01:59:29.589Z,0.80
2017-06-05T02:01:55.858Z,1.10
2017-06-05T02:04:22.998Z,1.23
2017-06-05T02:06:49.358Z,0.73
2017-06-05T02:09:15.633Z,0.70
2017-06-05T02:11:41.942Z,0.90
2017-06-05T02:14:08.214Z,0.90
2017-06-05T02:16:34.505Z,0.87
2017-06-05T02:19:00.819Z,1.17
2017-06-05T02:21:28.134Z,1.00
2017-06-05T02:23:54.397Z,0.80
2017-06-05T02:26:20.725Z,0.90
2017-06-05T02:28:46.994Z,0.90
2017-06-05T02:31:13.266Z,1.03
2017-06-05T02:33:39.569Z,1.20
2017-06-05T02:36:05.833Z,0.80
2017-06-05T02:38:32.121Z,0.93
2017-06-05T02:40:59.429Z,0.73
2017-06-05T02:43:25.731Z,1.00
2017-06-05T02:45:52.001Z,1.33
2017-06-05T02:48:19.341Z,1.07
2017-06-05T02:50:45.617Z,0.87
2017-06-05T02:53:11.887Z,1.30
2017-06-05T02:55:38.199Z,1.30
2017-06-05T02:58:04.470Z,1.10
2017-06-05T03:00:30.754Z,1.10
2017-06-05T03:02:57.050Z,1.10
2017-06-05T03:05:23.325Z,1.27
2017-06-05T03:07:49.602Z,1.40
2017-06-05T03:10:20.087Z,1.07
2017-06-05T03:12:46.374Z,1.10
2017-06-05T03:15:12.642Z,1.37
2017-06-05T03:17:39.242Z,1.07
2017-06-05T03:20:05.505Z,1.30
2017-06-05T03:22:31.782Z,1.37
2017-06-05T03:24:58.371Z,1.10
2017-06-05T03:27:24.645Z,1.30
2017-06-05T03:29:50.901Z,1.30
2017-06-05T03:32:17.557Z,1.60
2017-06-05T03:34:43.829Z,1.43
2017-06-05T03:37:10.098Z,2.00
2017-06-05T03:39:36.754Z,1.67
2017-06-05T03:42:03.019Z,1.40
2017-06-05T03:44:29.315Z,1.70
2017-06-05T03:46:55.969Z,1.80
2017-06-05T03:49:22.237Z,1.53
2017-06-05T03:51:48.506Z,1.70
2017-06-05T03:54:16.654Z,2.03
2017-06-05T03:56:42.939Z,1.77
2017-06-05T03:59:09.202Z,1.80
2017-06-05T04:01:36.705Z,2.10
2017-06-05T04:04:02.998Z,2.00
2017-06-05T04:06:29.299Z,2.23
2017-06-05T04:08:56.577Z,1.80
2017-06-05T04:11:22.839Z,1.97
2017-06-05T04:13:49.109Z,1.87
2017-06-05T04:16:16.629Z,1.80
2017-06-05T04:18:42.898Z,1.20
2017-06-05T04:21:09.184Z,1.50
2017-06-05T04:23:36.705Z,1.63
2017-06-05T04:26:02.980Z,1.90
2017-06-05T04:28:29.245Z,2.00
2017-06-05T04:30:55.836Z,2.03
2017-06-05T04:33:22.118Z,2.07
2017-06-05T04:35:48.394Z,1.70
2017-06-05T04:38:15.013Z,2.20
2017-06-05T04:40:41.291Z,2.13
2017-06-05T04:43:07.554Z,2.67
2017-06-05T04:45:34.127Z,3.03
2017-06-05T04:48:00.394Z,2.73
2017-06-05T04:50:26.682Z,3.70
2017-06-05T04:52:53.317Z,3.10
2017-06-05T04:55:19.581Z,3.17
2017-06-05T04:57:45.877Z,3.70
2017-06-05T05:00:12.507Z,2.90
2017-06-05T05:02:38.778Z,3.40
2017-06-05T05:05:05.069Z,3.53
2017-06-05T05:07:31.693Z,3.17
2017-06-05T05:09:57.970Z,3.00
2017-06-05T05:12:24.233Z,2.70
2017-06-05T05:14:51.719Z,2.90
2017-06-05T05:17:18.758Z,3.03
2017-06-05T05:19:45.018Z,3.60
2017-06-05T05:22:11.633Z,4.17
2017-06-05T05:24:37.909Z,4.27
2017-06-05T05:27:04.188Z,4.13
2017-06-05T05:29:30.822Z,4.00
2017-06-05T05:31:57.829Z,4.30
2017-06-05T05:34:24.094Z,4.10
2017-06-05T05:36:50.710Z,4.53
2017-06-05T05:39:16.990Z,3.33
2017-06-05T05:41:43.282Z,3.73
2017-06-05T05:44:09.929Z,3.77
2017-06-05T05:46:36.926Z,3.80
2017-06-05T05:49:03.195Z,3.57
2017-06-05T05:51:29.845Z,3.90
2017-06-05T05:53:56.147Z,3.23
2017-06-05T05:56:22.451Z,4.30
2017-06-05T05:58:49.029Z,3.07
2017-06-05T06:01:15.311Z,3.90
2017-06-05T06:03:42.621Z,3.90
2017-06-05T06:06:09.300Z,3.60
2017-06-05T06:08:35.580Z,3.30
2017-06-05T06:11:02.589Z,3.00
2017-06-05T06:13:29.165Z,3.87
2017-06-05T06:15:55.427Z,3.63
2017-06-05T06:18:21.738Z,3.70
2017-06-05T06:20:48.362Z,3.90
2017-06-05T06:23:15.392Z,4.27
2017-06-05T06:25:41.649Z,3.93
2017-06-05T06:28:09.055Z,3.83
2017-06-05T06:30:35.325Z,3.67
2017-06-05T06:33:01.610Z,3.70
2017-06-05T06:35:28.202Z,4.20
2017-06-05T06:37:54.461Z,4.10
2017-06-05T06:40:20.729Z,3.80
2017-06-05T06:42:47.307Z,3.10
2017-06-05T06:45:13.584Z,3.70
2017-06-05T06:47:39.857Z,4.10
2017-06-05T06:50:06.473Z,4.00
2017-06-05T06:52:33.485Z,3.90
2017-06-05T06:54:59.774Z,3.80
2017-06-05T06:57:26.495Z,3.70
2017-06-05T06:59:52.757Z,4.00
2017-06-05T07:02:19.030Z,4.20
2017-06-05T07:04:46.542Z,3.73
2017-06-05T07:07:12.830Z,3.60
2017-06-05T07:09:39.140Z,3.50
2017-06-05T07:12:06.453Z,3.90
2017-06-05T07:14:32.721Z,4.07
2017-06-05T07:16:58.981Z,3.83
2017-06-05T07:19:25.606Z,3.87
2017-06-05T07:21:52.630Z,4.00
2017-06-05T07:24:18.922Z,3.93
2017-06-05T07:26:45.517Z,4.07
2017-06-05T07:29:12.549Z,4.00
2017-06-05T07:31:38.818Z,4.53
2017-06-05T07:34:06.103Z,4.50
2017-06-05T07:36:32.374Z,4.00
2017-06-05T07:38:58.645Z,4.30
2017-06-05T07:41:25.246Z,4.20
2017-06-05T07:43:51.513Z,4.70
2017-06-05T07:46:17.798Z,3.40
2017-06-05T07:48:45.157Z,3.40
2017-06-05T07:51:12.163Z,3.80
2017-06-05T07:53:38.426Z,3.43
2017-06-05T07:56:05.781Z,3.80
2017-06-05T07:58:32.775Z,4.77
2017-06-05T08:00:59.063Z,4.70
2017-06-05T08:03:25.697Z,5.40
2017-06-05T08:05:52.717Z,5.87
2017-06-05T08:08:18.985Z,4.40
2017-06-05T08:10:45.605Z,4.83
2017-06-05T08:13:12.618Z,5.57
2017-06-05T08:15:38.901Z,4.10
2017-06-05T08:18:06.211Z,3.40
2017-06-05T08:20:32.482Z,3.50
2017-06-05T08:22:58.745Z,2.80
2017-06-05T08:25:26.190Z,3.77
2017-06-05T08:27:52.458Z,2.97
2017-06-05T08:30:18.739Z,2.50
2017-06-05T08:32:46.158Z,2.90
2017-06-05T08:35:13.164Z,2.87
2017-06-05T08:37:39.417Z,2.47
2017-06-05T08:40:06.073Z,2.30
2017-06-05T08:42:32.341Z,2.10
2017-06-05T08:44:58.606Z,2.70
2017-06-05T08:47:25.149Z,2.20
2017-06-05T08:49:51.413Z,2.10
2017-06-05T08:52:17.679Z,1.67
2017-06-05T08:54:44.253Z,1.70
2017-06-05T08:57:11.257Z,1.90
2017-06-05T08:59:37.537Z,1.80
2017-06-05T09:02:04.945Z,1.80
2017-06-05T09:04:31.221Z,1.50
2017-06-05T09:06:58.213Z,1.50
2017-06-05T09:09:24.793Z,1.87
2017-06-05T09:11:51.793Z,2.23
2017-06-05T09:14:18.051Z,1.60
2017-06-05T09:16:44.601Z,2.10
2017-06-05T09:19:11.588Z,1.80
2017-06-05T09:21:37.865Z,1.70
2017-06-05T09:24:04.521Z,1.77
2017-06-05T09:26:31.537Z,1.60
2017-06-05T09:28:57.786Z,1.67
2017-06-05T09:31:24.429Z,1.53
2017-06-05T09:33:51.417Z,1.47
2017-06-05T09:36:18.710Z,1.30
2017-06-05T09:38:46.088Z,1.60
2017-06-05T09:41:13.349Z,1.60
2017-06-05T09:43:39.610Z,1.63
2017-06-05T09:46:06.198Z,1.80
2017-06-05T09:48:32.458Z,1.70
2017-06-05T09:50:59.716Z,1.37
2017-06-05T09:53:26.313Z,1.70
2017-06-05T09:55:53.585Z,1.37
2017-06-05T09:58:19.845Z,1.80
2017-06-05T10:00:46.888Z,1.53
2017-06-05T10:03:13.151Z,1.43
2017-06-05T10:05:39.406Z,1.40
2017-06-05T10:08:06.753Z,1.57
2017-06-05T10:10:33.758Z,1.40
2017-06-05T10:13:01.047Z,1.20
2017-06-05T10:15:29.337Z,1.80
2017-06-05T10:17:55.599Z,1.63
2017-06-05T10:20:21.853Z,1.53
2017-06-05T10:22:48.420Z,1.50
2017-06-05T10:25:15.426Z,1.80
2017-06-05T10:27:41.689Z,1.70
2017-06-05T10:30:09.045Z,1.33
2017-06-05T10:32:36.056Z,1.50
2017-06-05T10:35:02.321Z,1.10
2017-06-05T10:37:29.613Z,1.40
2017-06-05T10:39:55.909Z,1.43
2017-06-05T10:42:22.206Z,1.93
2017-06-05T10:44:49.605Z,1.77
2017-06-05T10:47:15.866Z,1.17
2017-06-05T10:49:42.130Z,1.73
2017-06-05T10:52:09.630Z,1.63
2017-06-05T10:54:35.890Z,1.50
2017-06-05T10:57:02.157Z,1.17
2017-06-05T10:59:29.521Z,1.33
2017-06-05T11:01:56.809Z,1.53
2017-06-05T11:04:23.145Z,1.20
2017-06-05T11:06:50.409Z,1.83
2017-06-05T11:09:16.677Z,1.70
2017-06-05T11:11:43.693Z,1.60
2017-06-05T11:14:11.077Z,1.80
2017-06-05T11:16:37.360Z,1.40
2017-06-05T11:19:03.638Z,1.70
2017-06-05T11:21:30.918Z,1.30
2017-06-05T11:23:57.185Z,1.90
2017-06-05T11:26:23.434Z,1.60
2017-06-05T11:28:50.808Z,1.90
2017-06-05T11:31:17.201Z,2.20
2017-06-05T11:33:43.471Z,1.57
2017-06-05T11:36:10.097Z,1.70
2017-06-05T11:38:37.090Z,1.63
2017-06-05T11:41:03.349Z,1.40
2017-06-05T11:43:29.873Z,1.80
2017-06-05T11:45:56.125Z,1.90
2017-06-05T11:48:22.382Z,1.50
2017-06-05T11:50:48.990Z,1.80
2017-06-05T11:53:17.017Z,1.70
2017-06-05T11:55:43.277Z,1.50
2017-06-05T11:58:09.933Z,2.10
2017-06-05T12:00:36.929Z,1.50
2017-06-05T12:03:03.186Z,1.50
2017-06-05T12:05:29.846Z,2.00
2017-06-05T12:07:56.839Z,1.60
2017-06-05T12:10:23.106Z,1.70
2017-06-05T12:12:50.616Z,1.40
2017-06-05T12:15:16.885Z,1.47
2017-06-05T12:17:43.157Z,1.87
2017-06-05T12:20:09.713Z,1.23
2017-06-05T12:22:35.977Z,1.40
2017-06-05T12:25:02.233Z,1.20
2017-06-05T12:27:29.574Z,1.30
2017-06-05T12:29:56.573Z,1.37
2017-06-05T12:32:22.838Z,0.97
2017-06-05T12:34:49.453Z,1.20
2017-06-05T12:37:15.741Z,1.20
2017-06-05T12:39:42.018Z,0.80
2017-06-05T12:42:08.570Z,0.93
2017-06-05T12:44:34.829Z,0.97
2017-06-05T12:47:01.078Z,0.83
2017-06-05T12:49:27.674Z,1.10
2017-06-05T12:51:54.679Z,0.87
2017-06-05T12:54:20.941Z,1.10
2017-06-05T12:56:48.974Z,1.00
2017-06-05T12:59:15.237Z,1.07
2017-06-05T13:01:41.493Z,1.03
2017-06-05T13:04:08.954Z,0.80
2017-06-05T13:06:35.200Z,0.90
2017-06-05T13:09:01.455Z,1.30
2017-06-05T13:11:28.030Z,0.80
2017-06-05T13:13:55.094Z,1.10
2017-06-05T13:16:21.346Z,0.80
2017-06-05T13:18:47.937Z,1.00
2017-06-05T13:21:14.193Z,0.90
2017-06-05T13:23:40.449Z,1.07
2017-06-05T13:26:07.037Z,1.00
2017-06-05T13:28:34.051Z,1.50
2017-06-05T13:31:00.301Z,1.20
2017-06-05T13:33:26.837Z,1.00
2017-06-05T13:35:53.091Z,1.00
2017-06-05T13:38:19.345Z,0.87
2017-06-05T13:40:45.898Z,1.20
2017-06-05T13:43:12.153Z,1.23
2017-06-05T13:45:39.153Z,1.80
2017-06-05T13:48:05.744Z,1.50
2017-06-05T13:50:31.998Z,2.20
2017-06-05T13:52:58.253Z,2.23
2017-06-05T13:55:24.837Z,2.10
2017-06-05T13:57:51.829Z,2.10
2017-06-05T14:00:18.083Z,2.70
2017-06-05T14:02:45.582Z,3.20
2017-06-05T14:05:11.841Z,2.40
2017-06-05T14:07:38.105Z,2.30
2017-06-05T14:10:05.410Z,2.30
2017-06-05T14:12:31.669Z,2.07
2017-06-05T14:14:57.922Z,1.90
2017-06-05T14:17:25.341Z,2.23
2017-06-05T14:19:51.981Z,2.40
2017-06-05T14:22:18.258Z,2.70
2017-06-05T14:24:44.789Z,2.13
2017-06-05T14:27:11.781Z,2.33
2017-06-05T14:29:38.037Z,2.60
2017-06-05T14:32:04.603Z,3.03
2017-06-05T14:34:30.873Z,3.03
2017-06-05T14:36:57.134Z,3.00
2017-06-05T14:39:23.795Z,3.30
2017-06-05T14:41:50.803Z,3.23
2017-06-05T14:44:17.074Z,3.50
2017-06-05T14:46:45.173Z,3.20
2017-06-05T14:49:11.425Z,3.50
2017-06-05T14:51:37.709Z,4.13
2017-06-05T14:54:04.341Z,4.90
2017-06-05T14:56:30.605Z,5.30
2017-06-05T14:58:56.868Z,5.87
2017-06-05T15:01:23.426Z,6.63
2017-06-05T15:03:50.446Z,6.70
2017-06-05T15:06:16.729Z,7.60
2017-06-05T15:08:43.333Z,7.30
2017-06-05T15:11:10.343Z,9.50
2017-06-05T15:13:36.603Z,10.50
2017-06-05T15:16:04.108Z,10.23
2017-06-05T15:18:30.377Z,11.20
2017-06-05T15:20:56.636Z,12.00
2017-06-05T15:23:23.265Z,12.53
2017-06-05T15:25:50.268Z,11.67
2017-06-05T15:28:16.547Z,11.20
2017-06-05T15:30:44.204Z,11.60
2017-06-05T15:33:11.202Z,11.73
2017-06-05T15:35:37.469Z,11.23
2017-06-05T15:38:04.786Z,12.00
2017-06-05T15:40:31.045Z,11.07
2017-06-05T15:42:57.302Z,11.70
2017-06-05T15:45:24.813Z,10.80
2017-06-05T15:47:51.096Z,11.30
2017-06-05T15:50:17.362Z,11.37
2017-06-05T15:52:44.045Z,11.70
2017-06-05T15:55:11.045Z,11.00
2017-06-05T15:57:37.313Z,11.63
2017-06-05T16:00:03.894Z,11.73
2017-06-05T16:02:30.153Z,11.70
2017-06-05T16:04:56.413Z,11.13
2017-06-05T16:07:23.757Z,12.50
2017-06-05T16:09:50.017Z,12.53
2017-06-05T16:12:16.282Z,12.53
2017-06-05T16:14:42.853Z,12.93
2017-06-05T16:17:09.851Z,14.30
2017-06-05T16:19:36.110Z,14.13
2017-06-05T16:22:03.415Z,15.27
2017-06-05T16:24:29.680Z,17.37
2017-06-05T16:26:55.948Z,16.00
2017-06-05T16:29:22.577Z,14.40
2017-06-05T16:31:49.573Z,15.73
2017-06-05T16:34:15.829Z,16.33
2017-06-05T16:36:42.505Z,16.70
2017-06-05T16:39:08.766Z,16.80
2017-06-05T16:41:35.033Z,15.70
2017-06-05T16:44:02.334Z,15.60
2017-06-05T16:46:28.609Z,17.57
2017-06-05T16:48:55.606Z,16.50
2017-06-05T16:51:22.138Z,17.40
2017-06-05T16:53:48.402Z,20.10
2017-06-05T16:56:14.657Z,18.77
2017-06-05T16:58:42.749Z,19.30
2017-06-05T17:01:09.005Z,20.03
2017-06-05T17:03:35.318Z,20.80
2017-06-05T17:06:02.757Z,22.03
2017-06-05T17:08:29.040Z,19.07
2017-06-05T17:10:55.310Z,20.23
2017-06-05T17:13:22.653Z,18.33
2017-06-05T17:15:48.905Z,22.07
2017-06-05T17:18:15.210Z,19.00
2017-06-05T17:20:41.854Z,17.97
2017-06-05T17:23:08.853Z,17.47
2017-06-05T17:25:35.117Z,15.97
2017-06-05T17:28:03.334Z,17.37
2017-06-05T17:30:29.585Z,18.07
2017-06-05T17:32:55.875Z,17.10
2017-06-05T17:35:22.498Z,16.87
2017-06-05T17:37:48.777Z,18.00
2017-06-05T17:40:15.046Z,15.50
2017-06-05T17:42:41.690Z,17.20
2017-06-05T17:45:07.974Z,16.87
2017-06-05T17:47:34.254Z,17.70
2017-06-05T17:50:00.885Z,16.13
2017-06-05T17:52:27.905Z,18.70
2017-06-05T17:54:54.161Z,18.50
2017-06-05T17:57:22.215Z,18.93
2017-06-05T17:59:49.257Z,20.20
2017-06-05T18:02:15.552Z,19.43
2017-06-05T18:04:42.149Z,21.30
2017-06-05T18:07:08.418Z,23.00
2017-06-05T18:09:34.678Z,22.00
2017-06-05T18:12:01.245Z,21.43
2017-06-05T18:14:28.523Z,23.23
2017-06-05T18:16:54.802Z,22.20
2017-06-05T18:19:21.357Z,23.90
2017-06-05T18:21:47.625Z,23.30
2017-06-05T18:24:13.885Z,24.83
2017-06-05T18:26:41.199Z,21.63
2017-06-05T18:29:07.462Z,21.60
2017-06-05T18:31:33.737Z,21.87
2017-06-05T18:34:00.365Z,21.57
2017-06-05T18:36:27.682Z,22.13
2017-06-05T18:38:53.944Z,22.70
2017-06-05T18:41:20.497Z,21.00
2017-06-05T18:43:46.757Z,22.07
2017-06-05T18:46:13.033Z,23.27
2017-06-05T18:48:41.231Z,23.33
2017-06-05T18:51:07.504Z,25.10
2017-06-05T18:53:33.782Z,23.47
2017-06-05T18:56:00.401Z,24.37
2017-06-05T18:58:27.417Z,23.83
2017-06-05T19:00:53.718Z,22.50
2017-06-05T19:03:20.310Z,25.67
2017-06-05T19:05:46.585Z,25.90
2017-06-05T19:08:13.303Z,27.37
2017-06-05T19:10:40.785Z,25.67
2017-06-05T19:13:07.062Z,25.43
2017-06-05T19:15:33.330Z,28.73
2017-06-05T19:18:00.737Z,25.47
2017-06-05T19:20:27.761Z,26.37
2017-06-05T19:22:54.024Z,25.57
2017-06-05T19:25:21.381Z,23.97
2017-06-05T19:27:48.381Z,26.07
2017-06-05T19:30:14.662Z,29.57
2017-06-05T19:32:42.161Z,28.30
2017-06-05T19:35:08.522Z,25.70
2017-06-05T19:37:34.885Z,26.10
2017-06-05T19:40:01.460Z,28.80
2017-06-05T19:42:27.847Z,26.30
2017-06-05T19:44:54.178Z,25.10
2017-06-05T19:47:20.813Z,26.47
2017-06-05T19:49:47.121Z,25.47
2017-06-05T19:52:48.897Z,28.33
2017-06-05T19:55:15.917Z,24.83
2017-06-05T19:57:42.213Z,25.70
2017-06-05T20:00:08.800Z,27.20
2017-06-05T20:02:35.847Z,31.97
2017-06-05T20:05:03.870Z,31.40
2017-06-05T20:07:30.465Z,29.83
2017-06-05T20:09:56.718Z,26.60
2017-06-05T20:12:22.981Z,28.83
2017-06-05T20:14:49.554Z,30.07
2017-06-05T20:17:16.561Z,30.43
2017-06-05T20:19:42.821Z,27.43
2017-06-05T20:22:10.186Z,29.80
2017-06-05T20:24:37.202Z,27.73
2017-06-05T20:27:03.464Z,29.97
2017-06-05T20:29:30.093Z,31.67
2017-06-05T20:31:56.344Z,31.30
2017-06-05T20:34:23.625Z,28.10
2017-06-05T20:36:50.210Z,25.87
2017-06-05T20:39:17.200Z,26.23
2017-06-05T20:41:43.457Z,23.40
2017-06-05T20:44:10.036Z,24.93
2017-06-05T20:46:36.293Z,23.77
2017-06-05T20:49:02.553Z,25.00
2017-06-05T20:51:29.114Z,23.60
2017-06-05T20:53:56.122Z,25.33
2017-06-05T20:56:22.381Z,23.37
2017-06-05T20:58:50.525Z,25.07
2017-06-05T21:01:16.825Z,22.97
2017-06-05T21:03:43.073Z,25.70
2017-06-05T21:06:10.919Z,23.30
2017-06-05T21:08:37.182Z,23.07
2017-06-05T21:11:03.464Z,24.80
2017-06-05T21:13:31.099Z,26.63
2017-06-05T21:15:58.094Z,24.23
2017-06-05T21:18:24.360Z,23.63
2017-06-05T21:20:51.009Z,23.67
2017-06-05T21:23:17.346Z,24.50
2017-06-05T21:25:43.632Z,23.10
2017-06-05T21:28:10.210Z,26.03
2017-06-05T21:30:37.220Z,24.70
2017-06-05T21:33:03.481Z,23.60
2017-06-05T21:35:30.834Z,23.17
2017-06-05T21:37:57.834Z,23.83
2017-06-05T21:40:25.122Z,23.13
2017-06-05T21:42:52.486Z,24.77
2017-06-05T21:45:19.477Z,22.40
2017-06-05T21:47:45.734Z,23.70
2017-06-05T21:50:13.244Z,23.43
2017-06-05T21:52:39.521Z,23.07
2017-06-05T21:55:05.779Z,23.50
2017-06-05T21:57:33.074Z,22.87
2017-06-05T21:59:59.330Z,25.37
2017-06-05T22:02:25.590Z,24.97
2017-06-05T22:04:52.944Z,24.73
2017-06-05T22:07:19.942Z,24.20
2017-06-05T22:09:46.204Z,24.03
2017-06-05T22:12:13.572Z,23.57
2017-06-05T22:14:40.569Z,24.50
2017-06-05T22:17:06.829Z,26.40
2017-06-05T22:19:33.377Z,24.97
2017-06-05T22:21:59.640Z,24.83
2017-06-05T22:24:25.910Z,23.47
2017-06-05T22:26:53.248Z,22.07
2017-06-05T22:29:19.521Z,22.80
2017-06-05T22:31:46.517Z,21.23
2017-06-05T22:34:13.099Z,22.27
2017-06-05T22:36:39.361Z,21.30
2017-06-05T22:39:05.658Z,23.10
2017-06-05T22:41:32.258Z,22.80
2017-06-05T22:43:58.511Z,22.90
2017-06-05T22:46:25.505Z,22.70
2017-06-05T22:48:52.107Z,20.93
2017-06-05T22:51:19.124Z,24.03
2017-06-05T22:53:46.137Z,23.33
2017-06-05T22:56:12.730Z,20.40
2017-06-05T22:58:38.984Z,22.00
2017-06-05T23:01:05.245Z,22.20
2017-06-05T23:03:31.830Z,21.20
2017-06-05T23:05:58.830Z,23.67
2017-06-05T23:08:26.094Z,21.90
2017-06-05T23:10:53.677Z,20.60
2017-06-05T23:13:19.929Z,21.03
2017-06-05T23:15:46.189Z,18.40
2017-06-05T23:18:12.777Z,21.13
2017-06-05T23:20:39.040Z,19.70
2017-06-05T23:23:05.337Z,22.63
2017-06-05T23:25:31.977Z,23.27
2017-06-05T23:27:58.239Z,21.83
2017-06-05T23:30:24.481Z,21.90
2017-06-05T23:32:51.961Z,22.00
2017-06-05T23:35:18.234Z,22.30
2017-06-05T23:37:44.499Z,21.60
2017-06-05T23:40:12.013Z,25.57
2017-06-05T23:42:38.279Z,20.00
2017-06-05T23:45:04.529Z,23.83
2017-06-05T23:47:31.926Z,22.33
2017-06-05T23:49:58.179Z,31.37
2017-06-05T23:52:24.432Z,25.30
2017-06-05T23:54:51.001Z,24.80
2017-06-05T23:57:17.258Z,19.97
2017-06-05T23:59:43.505Z,24.87
